sensor_id;sensor_type;location;lat;lon;timestamp;P1;durP1;ratioP1;P2;durP2;ratioP2
34497;SDS011;20744;50.938;7.286;2023-06-01T00:02:06;5.55;;;2.30;;
34497;SDS011;20744;50.938;7.286;2023-06-01T00:04:34;3.33;;;1.90;;
34497;SDS011;20744;50.938;7.286;2023-06-01T00:07:05;6.03;;;2.55;;
34497;SDS011;20744;50.938;7.286;2023-06-01T00:09:32;4.55;;;1.58;;
34497;SDS011;20744;50.938;7.286;2023-06-01T00:12:00;4.22;;;1.80;;
34497;SDS011;20744;50.938;7.286;2023-06-01T00:14:27;7.32;;;2.17;;
34497;SDS011;20744;50.938;7.286;2023-06-01T00:16:54;8.73;;;2.17;;
34497;SDS011;20744;50.938;7.286;2023-06-01T00:19:23;8.23;;;2.10;;
34497;SDS011;20744;50.938;7.286;2023-06-01T00:21:51;5.25;;;1.95;;
34497;SDS011;20744;50.938;7.286;2023-06-01T00:24:18;6.63;;;2.08;;
34497;SDS011;20744;50.938;7.286;2023-06-01T00:26:46;4.32;;;1.98;;
34497;SDS011;20744;50.938;7.286;2023-06-01T00:29:13;5.53;;;2.15;;
34497;SDS011;20744;50.938;7.286;2023-06-01T00:31:41;10.80;;;2.08;;
34497;SDS011;20744;50.938;7.286;2023-06-01T00:34:09;4.60;;;2.10;;
34497;SDS011;20744;50.938;7.286;2023-06-01T00:36:38;7.05;;;2.15;;
34497;SDS011;20744;50.938;7.286;2023-06-01T00:39:05;6.72;;;1.85;;
34497;SDS011;20744;50.938;7.286;2023-06-01T00:41:33;4.13;;;2.10;;
34497;SDS011;20744;50.938;7.286;2023-06-01T00:44:00;4.18;;;2.10;;
34497;SDS011;20744;50.938;7.286;2023-06-01T00:46:27;10.07;;;2.28;;
34497;SDS011;20744;50.938;7.286;2023-06-01T00:48:56;6.53;;;2.33;;
34497;SDS011;20744;50.938;7.286;2023-06-01T00:51:24;5.47;;;2.30;;
34497;SDS011;20744;50.938;7.286;2023-06-01T00:53:53;5.13;;;2.13;;
34497;SDS011;20744;50.938;7.286;2023-06-01T00:56:20;7.05;;;2.20;;
34497;SDS011;20744;50.938;7.286;2023-06-01T00:58:51;4.40;;;2.33;;
34497;SDS011;20744;50.938;7.286;2023-06-01T01:01:18;4.28;;;2.03;;
34497;SDS011;20744;50.938;7.286;2023-06-01T01:03:48;7.63;;;2.47;;
34497;SDS011;20744;50.938;7.286;2023-06-01T01:06:24;6.35;;;2.33;;
34497;SDS011;20744;50.938;7.286;2023-06-01T01:08:57;6.28;;;2.30;;
34497;SDS011;20744;50.938;7.286;2023-06-01T01:11:32;8.00;;;2.22;;
34497;SDS011;20744;50.938;7.286;2023-06-01T01:14:01;7.20;;;1.90;;
34497;SDS011;20744;50.938;7.286;2023-06-01T01:16:31;6.88;;;2.83;;
34497;SDS011;20744;50.938;7.286;2023-06-01T01:19:07;7.00;;;1.98;;
34497;SDS011;20744;50.938;7.286;2023-06-01T01:21:38;7.55;;;2.00;;
34497;SDS011;20744;50.938;7.286;2023-06-01T01:24:21;5.75;;;2.00;;
34497;SDS011;20744;50.938;7.286;2023-06-01T01:26:56;6.40;;;2.17;;
34497;SDS011;20744;50.938;7.286;2023-06-01T01:29:32;5.95;;;2.05;;
34497;SDS011;20744;50.938;7.286;2023-06-01T01:32:00;7.57;;;2.30;;
34497;SDS011;20744;50.938;7.286;2023-06-01T01:34:30;6.50;;;2.45;;
34497;SDS011;20744;50.938;7.286;2023-06-01T01:36:57;5.90;;;1.80;;
34497;SDS011;20744;50.938;7.286;2023-06-01T01:39:25;6.35;;;2.35;;
34497;SDS011;20744;50.938;7.286;2023-06-01T01:41:52;5.68;;;2.22;;
34497;SDS011;20744;50.938;7.286;2023-06-01T01:44:19;5.60;;;2.00;;
34497;SDS011;20744;50.938;7.286;2023-06-01T01:46:50;5.47;;;2.10;;
34497;SDS011;20744;50.938;7.286;2023-06-01T01:49:20;5.10;;;1.80;;
34497;SDS011;20744;50.938;7.286;2023-06-01T01:51:50;7.70;;;2.42;;
34497;SDS011;20744;50.938;7.286;2023-06-01T01:54:19;7.80;;;1.98;;
34497;SDS011;20744;50.938;7.286;2023-06-01T01:56:46;9.55;;;2.60;;
34497;SDS011;20744;50.938;7.286;2023-06-01T01:59:15;9.90;;;2.28;;
34497;SDS011;20744;50.938;7.286;2023-06-01T02:01:44;8.27;;;2.40;;
34497;SDS011;20744;50.938;7.286;2023-06-01T02:04:12;6.57;;;2.15;;
34497;SDS011;20744;50.938;7.286;2023-06-01T02:06:40;5.25;;;2.20;;
34497;SDS011;20744;50.938;7.286;2023-06-01T02:09:07;6.75;;;2.22;;
34497;SDS011;20744;50.938;7.286;2023-06-01T02:11:34;6.25;;;2.03;;
34497;SDS011;20744;50.938;7.286;2023-06-01T02:14:02;5.45;;;2.22;;
34497;SDS011;20744;50.938;7.286;2023-06-01T02:16:29;5.20;;;2.20;;
34497;SDS011;20744;50.938;7.286;2023-06-01T02:18:56;5.20;;;2.10;;
34497;SDS011;20744;50.938;7.286;2023-06-01T02:21:25;8.40;;;2.53;;
34497;SDS011;20744;50.938;7.286;2023-06-01T02:23:52;6.10;;;2.08;;
34497;SDS011;20744;50.938;7.286;2023-06-01T02:26:20;6.88;;;2.17;;
34497;SDS011;20744;50.938;7.286;2023-06-01T02:28:47;5.63;;;1.98;;
34497;SDS011;20744;50.938;7.286;2023-06-01T02:31:14;5.47;;;2.30;;
34497;SDS011;20744;50.938;7.286;2023-06-01T02:33:41;4.00;;;2.20;;
34497;SDS011;20744;50.938;7.286;2023-06-01T02:36:09;7.72;;;2.40;;
34497;SDS011;20744;50.938;7.286;2023-06-01T02:38:37;4.43;;;2.15;;
34497;SDS011;20744;50.938;7.286;2023-06-01T02:41:05;7.35;;;2.72;;
34497;SDS011;20744;50.938;7.286;2023-06-01T02:43:33;8.27;;;2.35;;
34497;SDS011;20744;50.938;7.286;2023-06-01T02:46:01;8.20;;;2.50;;
34497;SDS011;20744;50.938;7.286;2023-06-01T02:48:28;7.07;;;2.47;;
34497;SDS011;20744;50.938;7.286;2023-06-01T02:50:55;6.93;;;2.38;;
34497;SDS011;20744;50.938;7.286;2023-06-01T02:53:23;8.15;;;2.50;;
34497;SDS011;20744;50.938;7.286;2023-06-01T02:55:53;7.97;;;2.75;;
34497;SDS011;20744;50.938;7.286;2023-06-01T02:58:20;4.70;;;2.35;;
34497;SDS011;20744;50.938;7.286;2023-06-01T03:00:48;5.68;;;2.45;;
34497;SDS011;20744;50.938;7.286;2023-06-01T03:03:16;8.85;;;2.60;;
34497;SDS011;20744;50.938;7.286;2023-06-01T03:05:43;7.50;;;2.40;;
34497;SDS011;20744;50.938;7.286;2023-06-01T03:08:13;5.40;;;2.40;;
34497;SDS011;20744;50.938;7.286;2023-06-01T03:10:41;6.38;;;2.47;;
34497;SDS011;20744;50.938;7.286;2023-06-01T03:13:10;5.22;;;2.33;;
34497;SDS011;20744;50.938;7.286;2023-06-01T03:15:37;6.28;;;2.60;;
34497;SDS011;20744;50.938;7.286;2023-06-01T03:18:04;10.20;;;3.20;;
34497;SDS011;20744;50.938;7.286;2023-06-01T03:20:32;5.05;;;2.45;;
34497;SDS011;20744;50.938;7.286;2023-06-01T03:23:00;6.13;;;2.53;;
34497;SDS011;20744;50.938;7.286;2023-06-01T03:25:27;10.00;;;2.40;;
34497;SDS011;20744;50.938;7.286;2023-06-01T03:27:56;5.80;;;2.70;;
34497;SDS011;20744;50.938;7.286;2023-06-01T03:30:25;8.02;;;2.83;;
34497;SDS011;20744;50.938;7.286;2023-06-01T03:32:52;6.75;;;2.38;;
34497;SDS011;20744;50.938;7.286;2023-06-01T03:35:19;5.22;;;2.28;;
34497;SDS011;20744;50.938;7.286;2023-06-01T03:37:47;10.35;;;3.17;;
34497;SDS011;20744;50.938;7.286;2023-06-01T03:40:14;7.82;;;2.80;;
34497;SDS011;20744;50.938;7.286;2023-06-01T03:42:44;4.32;;;2.40;;
34497;SDS011;20744;50.938;7.286;2023-06-01T03:45:11;9.40;;;2.72;;
34497;SDS011;20744;50.938;7.286;2023-06-01T03:47:42;7.15;;;3.00;;
34497;SDS011;20744;50.938;7.286;2023-06-01T03:50:10;7.68;;;3.20;;
34497;SDS011;20744;50.938;7.286;2023-06-01T03:52:38;6.55;;;2.60;;
34497;SDS011;20744;50.938;7.286;2023-06-01T03:55:06;5.35;;;2.80;;
34497;SDS011;20744;50.938;7.286;2023-06-01T03:57:35;10.48;;;2.88;;
34497;SDS011;20744;50.938;7.286;2023-06-01T04:00:02;10.48;;;2.95;;
34497;SDS011;20744;50.938;7.286;2023-06-01T04:02:44;5.18;;;2.55;;
34497;SDS011;20744;50.938;7.286;2023-06-01T04:05:11;7.22;;;2.95;;
34497;SDS011;20744;50.938;7.286;2023-06-01T04:07:41;8.73;;;2.50;;
34497;SDS011;20744;50.938;7.286;2023-06-01T04:10:09;7.25;;;2.95;;
34497;SDS011;20744;50.938;7.286;2023-06-01T04:12:40;6.80;;;2.70;;
34497;SDS011;20744;50.938;7.286;2023-06-01T04:15:08;9.02;;;3.25;;
34497;SDS011;20744;50.938;7.286;2023-06-01T04:17:36;6.50;;;3.22;;
34497;SDS011;20744;50.938;7.286;2023-06-01T04:20:07;9.95;;;3.20;;
34497;SDS011;20744;50.938;7.286;2023-06-01T04:22:35;9.45;;;3.40;;
34497;SDS011;20744;50.938;7.286;2023-06-01T04:25:04;6.65;;;3.00;;
34497;SDS011;20744;50.938;7.286;2023-06-01T04:27:32;8.48;;;2.80;;
34497;SDS011;20744;50.938;7.286;2023-06-01T04:30:03;7.88;;;2.75;;
34497;SDS011;20744;50.938;7.286;2023-06-01T04:32:32;8.85;;;3.00;;
34497;SDS011;20744;50.938;7.286;2023-06-01T04:35:00;6.38;;;2.83;;
34497;SDS011;20744;50.938;7.286;2023-06-01T04:37:31;10.32;;;3.35;;
34497;SDS011;20744;50.938;7.286;2023-06-01T04:39:59;6.70;;;2.97;;
34497;SDS011;20744;50.938;7.286;2023-06-01T04:42:26;7.07;;;3.55;;
34497;SDS011;20744;50.938;7.286;2023-06-01T04:44:55;6.78;;;2.92;;
34497;SDS011;20744;50.938;7.286;2023-06-01T04:47:23;10.02;;;3.45;;
34497;SDS011;20744;50.938;7.286;2023-06-01T04:49:52;9.32;;;3.63;;
34497;SDS011;20744;50.938;7.286;2023-06-01T04:52:21;7.75;;;3.03;;
34497;SDS011;20744;50.938;7.286;2023-06-01T04:54:50;7.82;;;3.20;;
34497;SDS011;20744;50.938;7.286;2023-06-01T04:57:18;6.30;;;3.00;;
34497;SDS011;20744;50.938;7.286;2023-06-01T04:59:45;8.70;;;2.70;;
34497;SDS011;20744;50.938;7.286;2023-06-01T05:02:12;9.63;;;3.13;;
34497;SDS011;20744;50.938;7.286;2023-06-01T05:04:39;10.02;;;3.08;;
34497;SDS011;20744;50.938;7.286;2023-06-01T05:07:07;11.68;;;3.38;;
34497;SDS011;20744;50.938;7.286;2023-06-01T05:09:34;12.30;;;3.83;;
34497;SDS011;20744;50.938;7.286;2023-06-01T05:12:04;8.05;;;3.67;;
34497;SDS011;20744;50.938;7.286;2023-06-01T05:14:32;10.80;;;3.08;;
34497;SDS011;20744;50.938;7.286;2023-06-01T05:16:59;8.68;;;3.33;;
34497;SDS011;20744;50.938;7.286;2023-06-01T05:19:26;13.18;;;3.22;;
34497;SDS011;20744;50.938;7.286;2023-06-01T05:21:54;10.10;;;3.30;;
34497;SDS011;20744;50.938;7.286;2023-06-01T05:24:21;11.13;;;3.67;;
34497;SDS011;20744;50.938;7.286;2023-06-01T05:26:48;10.15;;;3.30;;
34497;SDS011;20744;50.938;7.286;2023-06-01T05:29:17;7.75;;;3.00;;
34497;SDS011;20744;50.938;7.286;2023-06-01T05:31:45;10.25;;;3.50;;
34497;SDS011;20744;50.938;7.286;2023-06-01T05:34:13;7.93;;;2.90;;
34497;SDS011;20744;50.938;7.286;2023-06-01T05:36:40;9.60;;;3.20;;
34497;SDS011;20744;50.938;7.286;2023-06-01T05:39:07;11.30;;;3.70;;
34497;SDS011;20744;50.938;7.286;2023-06-01T05:41:35;9.93;;;3.13;;
34497;SDS011;20744;50.938;7.286;2023-06-01T05:44:03;5.70;;;3.03;;
34497;SDS011;20744;50.938;7.286;2023-06-01T05:46:32;10.40;;;3.10;;
34497;SDS011;20744;50.938;7.286;2023-06-01T05:48:59;8.13;;;3.50;;
34497;SDS011;20744;50.938;7.286;2023-06-01T05:51:26;5.93;;;3.20;;
34497;SDS011;20744;50.938;7.286;2023-06-01T05:53:53;6.82;;;3.10;;
34497;SDS011;20744;50.938;7.286;2023-06-01T05:56:20;5.15;;;3.30;;
34497;SDS011;20744;50.938;7.286;2023-06-01T05:58:48;8.38;;;3.63;;
34497;SDS011;20744;50.938;7.286;2023-06-01T06:01:18;7.18;;;3.35;;
34497;SDS011;20744;50.938;7.286;2023-06-01T06:03:46;8.68;;;3.40;;
34497;SDS011;20744;50.938;7.286;2023-06-01T06:06:14;8.38;;;3.72;;
34497;SDS011;20744;50.938;7.286;2023-06-01T06:08:41;14.43;;;3.72;;
34497;SDS011;20744;50.938;7.286;2023-06-01T06:11:08;9.35;;;3.92;;
34497;SDS011;20744;50.938;7.286;2023-06-01T06:13:35;15.57;;;4.13;;
34497;SDS011;20744;50.938;7.286;2023-06-01T06:16:03;10.07;;;5.07;;
34497;SDS011;20744;50.938;7.286;2023-06-01T06:18:30;10.88;;;5.00;;
34497;SDS011;20744;50.938;7.286;2023-06-01T06:20:59;9.18;;;5.00;;
34497;SDS011;20744;50.938;7.286;2023-06-01T06:23:26;11.48;;;5.80;;
34497;SDS011;20744;50.938;7.286;2023-06-01T06:25:55;11.18;;;5.25;;
34497;SDS011;20744;50.938;7.286;2023-06-01T06:28:22;13.85;;;5.45;;
34497;SDS011;20744;50.938;7.286;2023-06-01T06:30:50;12.05;;;6.35;;
34497;SDS011;20744;50.938;7.286;2023-06-01T06:33:17;13.48;;;6.28;;
34497;SDS011;20744;50.938;7.286;2023-06-01T06:35:44;9.48;;;5.63;;
34497;SDS011;20744;50.938;7.286;2023-06-01T06:38:13;10.43;;;5.68;;
34497;SDS011;20744;50.938;7.286;2023-06-01T06:40:41;11.48;;;6.07;;
34497;SDS011;20744;50.938;7.286;2023-06-01T06:43:08;9.55;;;5.32;;
34497;SDS011;20744;50.938;7.286;2023-06-01T06:45:36;9.48;;;5.90;;
34497;SDS011;20744;50.938;7.286;2023-06-01T06:48:03;16.35;;;6.10;;
34497;SDS011;20744;50.938;7.286;2023-06-01T06:50:30;9.43;;;6.15;;
34497;SDS011;20744;50.938;7.286;2023-06-01T06:52:57;7.90;;;5.47;;
34497;SDS011;20744;50.938;7.286;2023-06-01T06:55:28;9.23;;;5.28;;
34497;SDS011;20744;50.938;7.286;2023-06-01T06:57:56;10.05;;;5.70;;
34497;SDS011;20744;50.938;7.286;2023-06-01T07:00:23;11.18;;;6.30;;
34497;SDS011;20744;50.938;7.286;2023-06-01T07:02:50;11.30;;;6.25;;
34497;SDS011;20744;50.938;7.286;2023-06-01T07:05:18;13.15;;;6.28;;
34497;SDS011;20744;50.938;7.286;2023-06-01T07:07:46;13.55;;;6.97;;
34497;SDS011;20744;50.938;7.286;2023-06-01T07:10:13;10.52;;;6.30;;
34497;SDS011;20744;50.938;7.286;2023-06-01T07:12:42;10.27;;;5.90;;
34497;SDS011;20744;50.938;7.286;2023-06-01T07:15:09;11.27;;;6.80;;
34497;SDS011;20744;50.938;7.286;2023-06-01T07:17:37;11.00;;;6.88;;
34497;SDS011;20744;50.938;7.286;2023-06-01T07:20:05;11.45;;;6.88;;
34497;SDS011;20744;50.938;7.286;2023-06-01T07:22:32;9.13;;;6.50;;
34497;SDS011;20744;50.938;7.286;2023-06-01T07:25:00;10.65;;;6.63;;
34497;SDS011;20744;50.938;7.286;2023-06-01T07:27:27;8.27;;;6.07;;
34497;SDS011;20744;50.938;7.286;2023-06-01T07:29:56;8.75;;;6.18;;
34497;SDS011;20744;50.938;7.286;2023-06-01T07:32:24;10.55;;;5.50;;
34497;SDS011;20744;50.938;7.286;2023-06-01T07:34:51;10.38;;;6.03;;
34497;SDS011;20744;50.938;7.286;2023-06-01T07:37:18;10.00;;;5.93;;
34497;SDS011;20744;50.938;7.286;2023-06-01T07:39:47;11.50;;;6.05;;
34497;SDS011;20744;50.938;7.286;2023-06-01T07:42:14;9.13;;;5.95;;
34497;SDS011;20744;50.938;7.286;2023-06-01T07:44:41;9.05;;;5.75;;
34497;SDS011;20744;50.938;7.286;2023-06-01T07:47:10;10.02;;;4.85;;
34497;SDS011;20744;50.938;7.286;2023-06-01T07:49:37;7.60;;;5.93;;
34497;SDS011;20744;50.938;7.286;2023-06-01T07:52:05;10.15;;;6.18;;
34497;SDS011;20744;50.938;7.286;2023-06-01T07:54:33;7.72;;;5.72;;
34497;SDS011;20744;50.938;7.286;2023-06-01T07:57:00;8.77;;;6.20;;
34497;SDS011;20744;50.938;7.286;2023-06-01T07:59:29;8.70;;;6.47;;
34497;SDS011;20744;50.938;7.286;2023-06-01T08:01:56;10.07;;;6.43;;
34497;SDS011;20744;50.938;7.286;2023-06-01T08:04:26;9.40;;;5.95;;
34497;SDS011;20744;50.938;7.286;2023-06-01T08:06:58;8.38;;;6.00;;
34497;SDS011;20744;50.938;7.286;2023-06-01T08:09:28;11.85;;;6.47;;
34497;SDS011;20744;50.938;7.286;2023-06-01T08:11:55;7.80;;;6.40;;
34497;SDS011;20744;50.938;7.286;2023-06-01T08:14:22;9.50;;;5.80;;
34497;SDS011;20744;50.938;7.286;2023-06-01T08:16:50;12.18;;;6.70;;
34497;SDS011;20744;50.938;7.286;2023-06-01T08:19:17;9.60;;;7.10;;
34497;SDS011;20744;50.938;7.286;2023-06-01T08:21:46;12.50;;;7.70;;
34497;SDS011;20744;50.938;7.286;2023-06-01T08:24:13;8.55;;;7.35;;
34497;SDS011;20744;50.938;7.286;2023-06-01T08:26:41;9.18;;;6.40;;
34497;SDS011;20744;50.938;7.286;2023-06-01T08:29:08;12.23;;;6.82;;
34497;SDS011;20744;50.938;7.286;2023-06-01T08:31:36;11.10;;;7.28;;
34497;SDS011;20744;50.938;7.286;2023-06-01T08:34:04;10.52;;;7.28;;
34497;SDS011;20744;50.938;7.286;2023-06-01T08:36:31;12.10;;;7.28;;
34497;SDS011;20744;50.938;7.286;2023-06-01T08:39:03;10.32;;;7.13;;
34497;SDS011;20744;50.938;7.286;2023-06-01T08:41:49;9.70;;;7.35;;
34497;SDS011;20744;50.938;7.286;2023-06-01T08:44:20;8.10;;;6.50;;
34497;SDS011;20744;50.938;7.286;2023-06-01T08:46:49;11.15;;;7.93;;
34497;SDS011;20744;50.938;7.286;2023-06-01T08:49:16;12.02;;;7.32;;
34497;SDS011;20744;50.938;7.286;2023-06-01T08:51:44;8.95;;;6.88;;
34497;SDS011;20744;50.938;7.286;2023-06-01T08:54:13;11.13;;;7.22;;
34497;SDS011;20744;50.938;7.286;2023-06-01T08:56:40;12.63;;;7.10;;
34497;SDS011;20744;50.938;7.286;2023-06-01T08:59:07;10.88;;;7.18;;
34497;SDS011;20744;50.938;7.286;2023-06-01T09:01:36;8.57;;;6.55;;
34497;SDS011;20744;50.938;7.286;2023-06-01T09:04:04;11.25;;;7.75;;
34497;SDS011;20744;50.938;7.286;2023-06-01T09:06:33;13.73;;;6.80;;
34497;SDS011;20744;50.938;7.286;2023-06-01T09:09:01;9.90;;;5.70;;
34497;SDS011;20744;50.938;7.286;2023-06-01T09:11:30;10.23;;;6.15;;
34497;SDS011;20744;50.938;7.286;2023-06-01T09:13:58;7.38;;;5.80;;
34497;SDS011;20744;50.938;7.286;2023-06-01T09:16:34;9.10;;;6.03;;
34497;SDS011;20744;50.938;7.286;2023-06-01T09:19:02;8.45;;;6.10;;
34497;SDS011;20744;50.938;7.286;2023-06-01T09:21:31;8.10;;;5.90;;
34497;SDS011;20744;50.938;7.286;2023-06-01T09:24:02;7.25;;;5.82;;
34497;SDS011;20744;50.938;7.286;2023-06-01T09:26:46;7.45;;;5.03;;
34497;SDS011;20744;50.938;7.286;2023-06-01T09:29:14;8.15;;;5.85;;
34497;SDS011;20744;50.938;7.286;2023-06-01T09:31:42;9.93;;;5.22;;
34497;SDS011;20744;50.938;7.286;2023-06-01T09:34:10;9.73;;;5.38;;
34497;SDS011;20744;50.938;7.286;2023-06-01T09:36:40;7.95;;;5.03;;
34497;SDS011;20744;50.938;7.286;2023-06-01T09:39:09;6.35;;;5.30;;
34497;SDS011;20744;50.938;7.286;2023-06-01T09:41:50;7.78;;;5.40;;
34497;SDS011;20744;50.938;7.286;2023-06-01T09:44:25;9.13;;;4.82;;
34497;SDS011;20744;50.938;7.286;2023-06-01T09:46:53;8.65;;;5.55;;
34497;SDS011;20744;50.938;7.286;2023-06-01T09:49:21;8.43;;;5.97;;
34497;SDS011;20744;50.938;7.286;2023-06-01T09:51:50;8.32;;;6.20;;
34497;SDS011;20744;50.938;7.286;2023-06-01T09:54:27;8.30;;;6.30;;
34497;SDS011;20744;50.938;7.286;2023-06-01T09:56:57;8.65;;;5.90;;
34497;SDS011;20744;50.938;7.286;2023-06-01T09:59:25;9.50;;;5.65;;
34497;SDS011;20744;50.938;7.286;2023-06-01T10:01:54;6.93;;;5.53;;
34497;SDS011;20744;50.938;7.286;2023-06-01T10:04:22;8.10;;;6.07;;
34497;SDS011;20744;50.938;7.286;2023-06-01T10:06:51;8.65;;;6.65;;
34497;SDS011;20744;50.938;7.286;2023-06-01T10:09:19;11.68;;;6.88;;
34497;SDS011;20744;50.938;7.286;2023-06-01T10:11:47;10.57;;;6.45;;
34497;SDS011;20744;50.938;7.286;2023-06-01T10:14:16;11.68;;;6.78;;
34497;SDS011;20744;50.938;7.286;2023-06-01T10:16:43;12.10;;;6.80;;
34497;SDS011;20744;50.938;7.286;2023-06-01T10:19:11;10.93;;;7.13;;
34497;SDS011;20744;50.938;7.286;2023-06-01T10:21:39;9.27;;;6.40;;
34497;SDS011;20744;50.938;7.286;2023-06-01T10:24:07;11.05;;;6.30;;
34497;SDS011;20744;50.938;7.286;2023-06-01T10:26:38;13.20;;;7.35;;
34497;SDS011;20744;50.938;7.286;2023-06-01T10:29:08;11.27;;;7.28;;
34497;SDS011;20744;50.938;7.286;2023-06-01T10:31:37;10.73;;;6.32;;
34497;SDS011;20744;50.938;7.286;2023-06-01T10:34:06;8.25;;;6.28;;
34497;SDS011;20744;50.938;7.286;2023-06-01T10:39:22;10.43;;;6.47;;
34497;SDS011;20744;50.938;7.286;2023-06-01T10:41:49;9.40;;;6.47;;
34497;SDS011;20744;50.938;7.286;2023-06-01T10:47:00;12.57;;;6.10;;
34497;SDS011;20744;50.938;7.286;2023-06-01T10:52:25;10.80;;;6.10;;
34497;SDS011;20744;50.938;7.286;2023-06-01T10:54:52;8.27;;;6.18;;
34497;SDS011;20744;50.938;7.286;2023-06-01T10:57:20;11.77;;;7.00;;
34497;SDS011;20744;50.938;7.286;2023-06-01T11:02:35;14.50;;;6.70;;
34497;SDS011;20744;50.938;7.286;2023-06-01T11:07:51;9.60;;;6.72;;
34497;SDS011;20744;50.938;7.286;2023-06-01T11:13:13;12.68;;;7.85;;
34497;SDS011;20744;50.938;7.286;2023-06-01T11:18:43;11.23;;;7.60;;
34497;SDS011;20744;50.938;7.286;2023-06-01T11:21:14;16.42;;;9.40;;
34497;SDS011;20744;50.938;7.286;2023-06-01T11:23:42;15.77;;;8.55;;
34497;SDS011;20744;50.938;7.286;2023-06-01T11:26:10;15.38;;;9.88;;
34497;SDS011;20744;50.938;7.286;2023-06-01T11:28:41;16.33;;;10.30;;
34497;SDS011;20744;50.938;7.286;2023-06-01T11:31:08;20.15;;;9.98;;
34497;SDS011;20744;50.938;7.286;2023-06-01T11:33:37;15.73;;;11.75;;
34497;SDS011;20744;50.938;7.286;2023-06-01T11:36:07;20.38;;;12.23;;
34497;SDS011;20744;50.938;7.286;2023-06-01T11:38:37;19.35;;;12.45;;
34497;SDS011;20744;50.938;7.286;2023-06-01T11:41:04;18.88;;;12.68;;
34497;SDS011;20744;50.938;7.286;2023-06-01T11:43:31;22.05;;;15.05;;
34497;SDS011;20744;50.938;7.286;2023-06-01T11:45:59;23.83;;;15.32;;
34497;SDS011;20744;50.938;7.286;2023-06-01T11:48:27;24.60;;;17.73;;
34497;SDS011;20744;50.938;7.286;2023-06-01T11:50:57;22.23;;;17.30;;
34497;SDS011;20744;50.938;7.286;2023-06-01T11:53:26;22.88;;;16.98;;
34497;SDS011;20744;50.938;7.286;2023-06-01T11:55:54;24.98;;;18.73;;
34497;SDS011;20744;50.938;7.286;2023-06-01T11:58:22;25.48;;;20.90;;
34497;SDS011;20744;50.938;7.286;2023-06-01T12:00:50;22.95;;;19.50;;
34497;SDS011;20744;50.938;7.286;2023-06-01T12:03:17;24.63;;;20.52;;
34497;SDS011;20744;50.938;7.286;2023-06-01T12:05:45;25.30;;;20.30;;
34497;SDS011;20744;50.938;7.286;2023-06-01T12:08:13;24.38;;;19.90;;
34497;SDS011;20744;50.938;7.286;2023-06-01T12:10:43;23.80;;;18.45;;
34497;SDS011;20744;50.938;7.286;2023-06-01T12:13:11;26.63;;;19.65;;
34497;SDS011;20744;50.938;7.286;2023-06-01T12:15:39;22.90;;;17.08;;
34497;SDS011;20744;50.938;7.286;2023-06-01T12:18:06;26.30;;;19.25;;
34497;SDS011;20744;50.938;7.286;2023-06-01T12:20:34;21.75;;;17.38;;
34497;SDS011;20744;50.938;7.286;2023-06-01T12:23:02;22.52;;;17.85;;
34497;SDS011;20744;50.938;7.286;2023-06-01T12:25:29;22.40;;;17.52;;
34497;SDS011;20744;50.938;7.286;2023-06-01T12:28:05;20.90;;;18.25;;
34497;SDS011;20744;50.938;7.286;2023-06-01T12:30:32;24.77;;;17.55;;
34497;SDS011;20744;50.938;7.286;2023-06-01T12:33:00;21.10;;;17.48;;
34497;SDS011;20744;50.938;7.286;2023-06-01T12:35:29;22.60;;;18.40;;
34497;SDS011;20744;50.938;7.286;2023-06-01T12:38:03;25.40;;;16.13;;
34497;SDS011;20744;50.938;7.286;2023-06-01T12:40:32;24.52;;;17.05;;
34497;SDS011;20744;50.938;7.286;2023-06-01T12:43:00;22.63;;;16.08;;
34497;SDS011;20744;50.938;7.286;2023-06-01T12:45:35;21.20;;;16.30;;
34497;SDS011;20744;50.938;7.286;2023-06-01T12:48:03;24.83;;;15.98;;
34497;SDS011;20744;50.938;7.286;2023-06-01T12:50:30;19.17;;;14.85;;
34497;SDS011;20744;50.938;7.286;2023-06-01T12:52:57;18.35;;;13.40;;
34497;SDS011;20744;50.938;7.286;2023-06-01T12:55:28;19.52;;;13.20;;
34497;SDS011;20744;50.938;7.286;2023-06-01T12:57:55;21.67;;;13.98;;
34497;SDS011;20744;50.938;7.286;2023-06-01T13:00:23;16.95;;;13.90;;
34497;SDS011;20744;50.938;7.286;2023-06-01T13:02:51;23.33;;;13.90;;
34497;SDS011;20744;50.938;7.286;2023-06-01T13:05:19;21.20;;;11.45;;
34497;SDS011;20744;50.938;7.286;2023-06-01T13:07:48;22.83;;;11.93;;
34497;SDS011;20744;50.938;7.286;2023-06-01T13:10:15;20.00;;;10.10;;
34497;SDS011;20744;50.938;7.286;2023-06-01T13:12:42;14.05;;;8.63;;
34497;SDS011;20744;50.938;7.286;2023-06-01T13:15:09;14.68;;;8.48;;
34497;SDS011;20744;50.938;7.286;2023-06-01T13:17:37;12.27;;;7.05;;
34497;SDS011;20744;50.938;7.286;2023-06-01T13:20:06;11.75;;;6.60;;
34497;SDS011;20744;50.938;7.286;2023-06-01T13:22:36;12.55;;;6.13;;
34497;SDS011;20744;50.938;7.286;2023-06-01T13:25:04;11.13;;;5.95;;
34497;SDS011;20744;50.938;7.286;2023-06-01T13:27:31;12.45;;;6.10;;
34497;SDS011;20744;50.938;7.286;2023-06-01T13:29:59;10.95;;;5.53;;
34497;SDS011;20744;50.938;7.286;2023-06-01T13:32:27;11.65;;;5.80;;
34497;SDS011;20744;50.938;7.286;2023-06-01T13:34:54;11.65;;;6.13;;
34497;SDS011;20744;50.938;7.286;2023-06-01T13:37:23;13.02;;;6.15;;
34497;SDS011;20744;50.938;7.286;2023-06-01T13:39:51;10.77;;;6.18;;
34497;SDS011;20744;50.938;7.286;2023-06-01T13:42:18;15.82;;;6.22;;
34497;SDS011;20744;50.938;7.286;2023-06-01T13:44:45;14.07;;;5.95;;
34497;SDS011;20744;50.938;7.286;2023-06-01T13:47:13;9.57;;;5.68;;
34497;SDS011;20744;50.938;7.286;2023-06-01T13:49:40;10.75;;;5.55;;
34497;SDS011;20744;50.938;7.286;2023-06-01T13:52:08;11.45;;;5.53;;
34497;SDS011;20744;50.938;7.286;2023-06-01T13:54:36;15.85;;;5.63;;
34497;SDS011;20744;50.938;7.286;2023-06-01T13:57:03;11.48;;;5.68;;
34497;SDS011;20744;50.938;7.286;2023-06-01T13:59:35;12.00;;;6.00;;
34497;SDS011;20744;50.938;7.286;2023-06-01T14:02:03;8.70;;;4.75;;
34497;SDS011;20744;50.938;7.286;2023-06-01T14:04:30;12.60;;;5.50;;
34497;SDS011;20744;50.938;7.286;2023-06-01T14:06:57;14.25;;;5.82;;
34497;SDS011;20744;50.938;7.286;2023-06-01T14:09:25;9.35;;;4.93;;
34497;SDS011;20744;50.938;7.286;2023-06-01T14:11:53;10.05;;;5.20;;
34497;SDS011;20744;50.938;7.286;2023-06-01T14:14:21;14.50;;;5.30;;
34497;SDS011;20744;50.938;7.286;2023-06-01T14:16:48;11.48;;;6.00;;
34497;SDS011;20744;50.938;7.286;2023-06-01T14:19:15;16.10;;;5.43;;
34497;SDS011;20744;50.938;7.286;2023-06-01T14:21:42;12.55;;;6.05;;
34497;SDS011;20744;50.938;7.286;2023-06-01T14:24:10;14.32;;;5.78;;
34497;SDS011;20744;50.938;7.286;2023-06-01T14:26:37;16.02;;;7.07;;
34497;SDS011;20744;50.938;7.286;2023-06-01T14:29:05;14.02;;;6.75;;
34497;SDS011;20744;50.938;7.286;2023-06-01T14:31:33;14.52;;;6.18;;
34497;SDS011;20744;50.938;7.286;2023-06-01T14:34:00;16.05;;;7.03;;
34497;SDS011;20744;50.938;7.286;2023-06-01T14:36:28;17.25;;;7.45;;
34497;SDS011;20744;50.938;7.286;2023-06-01T14:38:55;19.40;;;8.07;;
34497;SDS011;20744;50.938;7.286;2023-06-01T14:41:22;11.32;;;6.80;;
34497;SDS011;20744;50.938;7.286;2023-06-01T14:43:50;17.15;;;7.35;;
34497;SDS011;20744;50.938;7.286;2023-06-01T14:46:18;12.25;;;7.70;;
34497;SDS011;20744;50.938;7.286;2023-06-01T14:48:46;17.17;;;7.72;;
34497;SDS011;20744;50.938;7.286;2023-06-01T14:51:13;11.70;;;7.70;;
34497;SDS011;20744;50.938;7.286;2023-06-01T14:53:41;14.73;;;8.20;;
34497;SDS011;20744;50.938;7.286;2023-06-01T14:56:09;19.77;;;9.95;;
34497;SDS011;20744;50.938;7.286;2023-06-01T14:58:36;15.07;;;10.32;;
34497;SDS011;20744;50.938;7.286;2023-06-01T15:01:03;16.33;;;10.00;;
34497;SDS011;20744;50.938;7.286;2023-06-01T15:03:32;16.20;;;9.45;;
34497;SDS011;20744;50.938;7.286;2023-06-01T15:05:59;16.23;;;9.98;;
34497;SDS011;20744;50.938;7.286;2023-06-01T15:08:27;20.23;;;11.13;;